sensor_id;sensor_type;location;lat;lon;timestamp;pressure;altitude;pressure_sealevel;temperature;humidity
70833;BME280;58452;59.418;17.962;2023-03-01T00:02:04;102567.75;;;2.35;67.81
70833;BME280;58452;59.418;17.962;2023-03-01T00:04:30;102570.47;;;2.00;68.30
70833;BME280;58452;59.418;17.962;2023-03-01T00:06:56;102563.09;;;1.90;68.85
70833;BME280;58452;59.418;17.962;2023-03-01T00:09:21;102563.97;;;1.89;68.74
70833;BME280;58452;59.418;17.962;2023-03-01T00:11:48;102571.88;;;1.46;70.83
70833;BME280;58452;59.418;17.962;2023-03-01T00:14:14;102569.16;;;1.54;70.70
70833;BME280;58452;59.418;17.962;2023-03-01T00:16:42;102566.06;;;1.74;69.88
70833;BME280;58452;59.418;17.962;2023-03-01T00:19:12;102560.31;;;1.67;70.19
70833;BME280;58452;59.418;17.962;2023-03-01T00:21:38;102572.47;;;1.56;70.70
70833;BME280;58452;59.418;17.962;2023-03-01T00:24:04;102570.59;;;1.29;71.21
70833;BME280;58452;59.418;17.962;2023-03-01T00:26:30;102575.34;;;1.09;72.81
70833;BME280;58452;59.418;17.962;2023-03-01T00:28:57;102568.66;;;1.05;72.68
70833;BME280;58452;59.418;17.962;2023-03-01T00:31:24;102570.19;;;1.12;72.51
70833;BME280;58452;59.418;17.962;2023-03-01T00:33:54;102585.38;;;1.15;72.98
70833;BME280;58452;59.418;17.962;2023-03-01T00:36:26;102573.16;;;1.29;71.75
70833;BME280;58452;59.418;17.962;2023-03-01T00:38:52;102572.09;;;1.37;72.14
70833;BME280;58452;59.418;17.962;2023-03-01T00:41:19;102575.50;;;1.36;71.34
70833;BME280;58452;59.418;17.962;2023-03-01T00:43:45;102578.09;;;1.35;71.98
70833;BME280;58452;59.418;17.962;2023-03-01T00:46:14;102580.41;;;1.44;71.68
70833;BME280;58452;59.418;17.962;2023-03-01T00:48:40;102580.56;;;1.38;71.79
70833;BME280;58452;59.418;17.962;2023-03-01T00:53:30;102575.69;;;0.93;73.49
70833;BME280;58452;59.418;17.962;2023-03-01T00:55:57;102570.69;;;0.90;74.09
70833;BME280;58452;59.418;17.962;2023-03-01T00:58:23;102569.06;;;0.88;74.20
70833;BME280;58452;59.418;17.962;2023-03-01T01:00:49;102565.53;;;0.93;73.96
70833;BME280;58452;59.418;17.962;2023-03-01T01:03:14;102568.94;;;0.92;73.92
70833;BME280;58452;59.418;17.962;2023-03-01T01:05:39;102568.84;;;0.95;74.36
70833;BME280;58452;59.418;17.962;2023-03-01T01:08:05;102561.97;;;1.01;74.03
70833;BME280;58452;59.418;17.962;2023-03-01T01:10:33;102565.28;;;1.04;73.17
70833;BME280;58452;59.418;17.962;2023-03-01T01:12:59;102560.44;;;0.93;74.32
70833;BME280;58452;59.418;17.962;2023-03-01T01:15:24;102556.22;;;0.92;74.32
70833;BME280;58452;59.418;17.962;2023-03-01T01:17:50;102564.06;;;0.83;74.80
70833;BME280;58452;59.418;17.962;2023-03-01T01:20:15;102561.00;;;0.69;74.73
70833;BME280;58452;59.418;17.962;2023-03-01T01:22:41;102559.34;;;0.68;74.90
70833;BME280;58452;59.418;17.962;2023-03-01T01:25:06;102550.63;;;0.78;74.63
70833;BME280;58452;59.418;17.962;2023-03-01T01:27:32;102549.63;;;0.85;74.83
70833;BME280;58452;59.418;17.962;2023-03-01T01:29:57;102549.59;;;0.87;74.01
70833;BME280;58452;59.418;17.962;2023-03-01T01:32:23;102552.72;;;0.98;73.97
70833;BME280;58452;59.418;17.962;2023-03-01T01:34:48;102543.59;;;0.89;73.75
70833;BME280;58452;59.418;17.962;2023-03-01T01:37:14;102547.22;;;0.79;74.34
70833;BME280;58452;59.418;17.962;2023-03-01T01:39:39;102544.75;;;0.76;74.88
70833;BME280;58452;59.418;17.962;2023-03-01T01:42:04;102550.34;;;0.90;74.33
70833;BME280;58452;59.418;17.962;2023-03-01T01:44:30;102539.09;;;1.01;73.28
70833;BME280;58452;59.418;17.962;2023-03-01T01:47:00;102539.84;;;1.06;73.64
70833;BME280;58452;59.418;17.962;2023-03-01T01:51:59;102532.91;;;1.11;73.00
70833;BME280;58452;59.418;17.962;2023-03-01T01:54:40;102537.88;;;1.17;72.64
70833;BME280;58452;59.418;17.962;2023-03-01T01:57:10;102544.75;;;1.12;72.90
70833;BME280;58452;59.418;17.962;2023-03-01T01:59:38;102540.66;;;1.06;73.20
70833;BME280;58452;59.418;17.962;2023-03-01T02:02:04;102536.03;;;1.22;72.26
70833;BME280;58452;59.418;17.962;2023-03-01T02:04:32;102549.63;;;1.21;72.29
70833;BME280;58452;59.418;17.962;2023-03-01T02:07:02;102540.22;;;1.24;72.16
70833;BME280;58452;59.418;17.962;2023-03-01T02:09:30;102546.19;;;1.22;72.01
70833;BME280;58452;59.418;17.962;2023-03-01T02:11:58;102548.91;;;1.16;72.86
70833;BME280;58452;59.418;17.962;2023-03-01T02:14:23;102537.81;;;0.83;72.47
70833;BME280;58452;59.418;17.962;2023-03-01T02:16:49;102540.03;;;0.96;73.09
70833;BME280;58452;59.418;17.962;2023-03-01T02:19:51;102532.69;;;1.20;71.99
70833;BME280;58452;59.418;17.962;2023-03-01T02:22:25;102532.66;;;0.49;73.51
70833;BME280;58452;59.418;17.962;2023-03-01T02:27:21;102524.88;;;0.57;74.31
70833;BME280;58452;59.418;17.962;2023-03-01T02:29:50;102526.81;;;0.82;74.01
70833;BME280;58452;59.418;17.962;2023-03-01T02:32:16;102530.03;;;0.90;72.97
70833;BME280;58452;59.418;17.962;2023-03-01T02:34:53;102525.88;;;0.86;72.47
70833;BME280;58452;59.418;17.962;2023-03-01T02:37:19;102531.72;;;0.53;73.28
70833;BME280;58452;59.418;17.962;2023-03-01T02:39:55;102531.63;;;0.58;73.47
70833;BME280;58452;59.418;17.962;2023-03-01T02:42:27;102522.72;;;-0.02;76.11
70833;BME280;58452;59.418;17.962;2023-03-01T02:44:55;102517.84;;;-0.12;76.47
70833;BME280;58452;59.418;17.962;2023-03-01T02:47:20;102510.59;;;0.11;76.25
70833;BME280;58452;59.418;17.962;2023-03-01T02:49:46;102507.63;;;0.32;75.75
70833;BME280;58452;59.418;17.962;2023-03-01T02:55:02;102507.97;;;0.16;75.63
70833;BME280;58452;59.418;17.962;2023-03-01T02:57:31;102511.44;;;0.12;75.58
70833;BME280;58452;59.418;17.962;2023-03-01T03:00:00;102506.38;;;0.12;75.80
70833;BME280;58452;59.418;17.962;2023-03-01T03:02:32;102505.41;;;0.17;75.04
70833;BME280;58452;59.418;17.962;2023-03-01T03:05:12;102512.88;;;0.25;75.85
70833;BME280;58452;59.418;17.962;2023-03-01T03:07:40;102519.56;;;0.29;74.74
70833;BME280;58452;59.418;17.962;2023-03-01T03:10:09;102514.47;;;0.29;75.41
70833;BME280;58452;59.418;17.962;2023-03-01T03:12:37;102513.38;;;0.00;74.85
70833;BME280;58452;59.418;17.962;2023-03-01T03:15:04;102501.03;;;-0.18;76.27
70833;BME280;58452;59.418;17.962;2023-03-01T03:17:35;102508.34;;;-0.03;75.79
70833;BME280;58452;59.418;17.962;2023-03-01T03:20:02;102513.84;;;-0.22;76.61
70833;BME280;58452;59.418;17.962;2023-03-01T03:22:28;102518.06;;;-0.23;77.07
70833;BME280;58452;59.418;17.962;2023-03-01T03:24:54;102516.94;;;-0.10;76.55
70833;BME280;58452;59.418;17.962;2023-03-01T03:27:19;102517.44;;;0.08;75.61
70833;BME280;58452;59.418;17.962;2023-03-01T03:29:45;102521.66;;;0.10;75.34
70833;BME280;58452;59.418;17.962;2023-03-01T03:32:10;102509.09;;;0.03;75.25
70833;BME280;58452;59.418;17.962;2023-03-01T03:34:35;102494.03;;;-0.05;75.75
70833;BME280;58452;59.418;17.962;2023-03-01T03:37:01;102497.31;;;0.00;75.10
70833;BME280;58452;59.418;17.962;2023-03-01T03:39:28;102493.13;;;-0.03;75.74
70833;BME280;58452;59.418;17.962;2023-03-01T03:41:54;102499.63;;;0.11;74.94
70833;BME280;58452;59.418;17.962;2023-03-01T03:44:20;102501.88;;;0.24;74.63
70833;BME280;58452;59.418;17.962;2023-03-01T03:46:46;102503.31;;;0.36;75.06
70833;BME280;58452;59.418;17.962;2023-03-01T03:49:11;102502.25;;;0.46;74.38
70833;BME280;58452;59.418;17.962;2023-03-01T03:51:37;102496.41;;;0.41;73.96
70833;BME280;58452;59.418;17.962;2023-03-01T03:54:02;102495.88;;;0.27;74.60
70833;BME280;58452;59.418;17.962;2023-03-01T03:56:27;102494.56;;;0.11;74.26
70833;BME280;58452;59.418;17.962;2023-03-01T03:58:53;102488.34;;;-0.18;75.71
70833;BME280;58452;59.418;17.962;2023-03-01T04:01:18;102488.66;;;-0.33;76.27
70833;BME280;58452;59.418;17.962;2023-03-01T04:03:44;102487.09;;;-0.40;77.26
70833;BME280;58452;59.418;17.962;2023-03-01T04:06:12;102492.22;;;-0.43;76.89
70833;BME280;58452;59.418;17.962;2023-03-01T04:08:38;102482.03;;;-0.40;77.29
70833;BME280;58452;59.418;17.962;2023-03-01T04:11:05;102484.69;;;-0.46;77.24
70833;BME280;58452;59.418;17.962;2023-03-01T04:13:50;102494.19;;;-0.57;77.94
70833;BME280;58452;59.418;17.962;2023-03-01T04:16:16;102479.88;;;-0.60;77.96
70833;BME280;58452;59.418;17.962;2023-03-01T04:18:42;102484.97;;;-0.61;77.77
70833;BME280;58452;59.418;17.962;2023-03-01T04:21:08;102485.75;;;-0.58;77.77
70833;BME280;58452;59.418;17.962;2023-03-01T04:23:33;102486.63;;;-0.60;78.08
70833;BME280;58452;59.418;17.962;2023-03-01T04:26:00;102485.69;;;-0.55;78.37
70833;BME280;58452;59.418;17.962;2023-03-01T04:28:28;102486.50;;;-0.54;77.66
70833;BME280;58452;59.418;17.962;2023-03-01T04:30:55;102492.56;;;-0.61;77.98
70833;BME280;58452;59.418;17.962;2023-03-01T04:33:21;102489.22;;;-0.63;77.84
70833;BME280;58452;59.418;17.962;2023-03-01T04:35:47;102490.09;;;-0.64;78.38
70833;BME280;58452;59.418;17.962;2023-03-01T04:38:15;102484.09;;;-0.60;78.09
70833;BME280;58452;59.418;17.962;2023-03-01T04:40:40;102482.59;;;-0.70;78.40
70833;BME280;58452;59.418;17.962;2023-03-01T04:43:08;102474.22;;;-0.75;78.67
70833;BME280;58452;59.418;17.962;2023-03-01T04:45:34;102477.75;;;-0.82;78.61
70833;BME280;58452;59.418;17.962;2023-03-01T04:48:00;102478.56;;;-0.82;78.43
70833;BME280;58452;59.418;17.962;2023-03-01T04:50:25;102472.63;;;-0.79;78.45
70833;BME280;58452;59.418;17.962;2023-03-01T04:52:51;102477.56;;;-0.73;78.89
70833;BME280;58452;59.418;17.962;2023-03-01T04:55:17;102477.41;;;-0.64;78.47
70833;BME280;58452;59.418;17.962;2023-03-01T04:57:43;102470.78;;;-0.71;78.78
70833;BME280;58452;59.418;17.962;2023-03-01T05:00:11;102470.84;;;-0.74;78.93
70833;BME280;58452;59.418;17.962;2023-03-01T05:05:24;102455.56;;;-0.71;77.81
70833;BME280;58452;59.418;17.962;2023-03-01T05:07:55;102459.66;;;-0.63;78.59
70833;BME280;58452;59.418;17.962;2023-03-01T05:10:22;102467.00;;;-0.49;78.42
70833;BME280;58452;59.418;17.962;2023-03-01T05:12:48;102456.50;;;-0.31;76.83
70833;BME280;58452;59.418;17.962;2023-03-01T05:15:13;102460.78;;;-0.34;76.91
70833;BME280;58452;59.418;17.962;2023-03-01T05:17:39;102466.41;;;-0.19;76.90
70833;BME280;58452;59.418;17.962;2023-03-01T05:20:05;102466.41;;;-0.20;75.69
70833;BME280;58452;59.418;17.962;2023-03-01T05:22:34;102465.66;;;-0.24;76.16
70833;BME280;58452;59.418;17.962;2023-03-01T05:25:00;102469.88;;;-0.23;75.72
70833;BME280;58452;59.418;17.962;2023-03-01T05:27:26;102464.34;;;-0.43;77.08
70833;BME280;58452;59.418;17.962;2023-03-01T05:29:51;102465.19;;;-0.44;77.44
70833;BME280;58452;59.418;17.962;2023-03-01T05:32:17;102477.91;;;-0.45;77.79
70833;BME280;58452;59.418;17.962;2023-03-01T05:34:42;102483.91;;;-0.51;78.17
70833;BME280;58452;59.418;17.962;2023-03-01T05:37:09;102479.97;;;-0.66;77.94
70833;BME280;58452;59.418;17.962;2023-03-01T05:39:34;102480.16;;;-0.76;78.04
70833;BME280;58452;59.418;17.962;2023-03-01T05:42:01;102479.03;;;-0.60;77.90
70833;BME280;58452;59.418;17.962;2023-03-01T05:44:28;102489.06;;;-0.54;77.79
70833;BME280;58452;59.418;17.962;2023-03-01T05:46:54;102485.53;;;-0.47;77.48
70833;BME280;58452;59.418;17.962;2023-03-01T05:49:20;102483.88;;;-0.48;77.13
70833;BME280;58452;59.418;17.962;2023-03-01T05:51:51;102472.34;;;-0.64;78.41
70833;BME280;58452;59.418;17.962;2023-03-01T05:54:17;102474.09;;;-0.69;77.99
70833;BME280;58452;59.418;17.962;2023-03-01T05:56:43;102473.19;;;-0.64;78.62
70833;BME280;58452;59.418;17.962;2023-03-01T05:59:09;102470.44;;;-0.53;77.61
70833;BME280;58452;59.418;17.962;2023-03-01T06:01:35;102461.69;;;-0.37;77.93
70833;BME280;58452;59.418;17.962;2023-03-01T06:04:02;102465.56;;;-0.19;76.75
70833;BME280;58452;59.418;17.962;2023-03-01T06:06:27;102462.91;;;-0.15;75.81
70833;BME280;58452;59.418;17.962;2023-03-01T06:08:53;102462.03;;;-0.12;76.14
70833;BME280;58452;59.418;17.962;2023-03-01T06:11:19;102470.66;;;-0.21;75.75
70833;BME280;58452;59.418;17.962;2023-03-01T06:13:45;102477.25;;;-0.12;76.32
70833;BME280;58452;59.418;17.962;2023-03-01T06:16:12;102469.59;;;-0.11;76.31
70833;BME280;58452;59.418;17.962;2023-03-01T06:18:37;102466.03;;;-0.01;75.90
70833;BME280;58452;59.418;17.962;2023-03-01T06:21:04;102464.13;;;0.08;75.58
70833;BME280;58452;59.418;17.962;2023-03-01T06:23:30;102460.81;;;0.06;74.52
70833;BME280;58452;59.418;17.962;2023-03-01T06:25:56;102464.13;;;0.08;74.99
70833;BME280;58452;59.418;17.962;2023-03-01T06:28:21;102462.75;;;-0.06;75.20
70833;BME280;58452;59.418;17.962;2023-03-01T06:30:47;102467.34;;;-0.23;75.14
70833;BME280;58452;59.418;17.962;2023-03-01T06:33:12;102477.28;;;-0.58;77.65
70833;BME280;58452;59.418;17.962;2023-03-01T06:35:38;102475.06;;;-0.75;78.26
70833;BME280;58452;59.418;17.962;2023-03-01T06:38:04;102471.75;;;-0.78;79.44
70833;BME280;58452;59.418;17.962;2023-03-01T06:40:30;102469.19;;;-0.77;78.80
70833;BME280;58452;59.418;17.962;2023-03-01T06:42:56;102474.09;;;-0.68;78.58
70833;BME280;58452;59.418;17.962;2023-03-01T06:45:22;102484.16;;;-0.63;78.74
70833;BME280;58452;59.418;17.962;2023-03-01T06:47:48;102474.81;;;-0.61;78.66
70833;BME280;58452;59.418;17.962;2023-03-01T06:50:14;102481.63;;;-0.63;78.70
70833;BME280;58452;59.418;17.962;2023-03-01T06:52:40;102478.25;;;-0.65;79.35
70833;BME280;58452;59.418;17.962;2023-03-01T06:55:06;102472.34;;;-0.66;79.41
70833;BME280;58452;59.418;17.962;2023-03-01T06:57:31;102470.56;;;-0.59;79.28
70833;BME280;58452;59.418;17.962;2023-03-01T06:59:57;102471.22;;;-0.48;78.93
70833;BME280;58452;59.418;17.962;2023-03-01T07:02:22;102479.47;;;-0.38;77.84
70833;BME280;58452;59.418;17.962;2023-03-01T07:04:51;102468.47;;;-0.39;77.99
70833;BME280;58452;59.418;17.962;2023-03-01T07:07:17;102464.91;;;-0.29;77.85
70833;BME280;58452;59.418;17.962;2023-03-01T07:09:44;102463.13;;;-0.24;78.19
70833;BME280;58452;59.418;17.962;2023-03-01T07:12:10;102469.88;;;-0.23;77.99
70833;BME280;58452;59.418;17.962;2023-03-01T07:14:35;102463.91;;;-0.22;77.98
70833;BME280;58452;59.418;17.962;2023-03-01T07:17:01;102464.66;;;-0.17;78.05
70833;BME280;58452;59.418;17.962;2023-03-01T07:19:26;102469.66;;;-0.14;77.86
70833;BME280;58452;59.418;17.962;2023-03-01T07:21:52;102470.38;;;-0.07;77.92
70833;BME280;58452;59.418;17.962;2023-03-01T07:24:18;102471.94;;;0.00;77.83
70833;BME280;58452;59.418;17.962;2023-03-01T07:26:43;102470.03;;;0.10;77.16
70833;BME280;58452;59.418;17.962;2023-03-01T07:29:10;102469.19;;;0.11;76.93
70833;BME280;58452;59.418;17.962;2023-03-01T07:31:36;102480.81;;;0.19;76.42
70833;BME280;58452;59.418;17.962;2023-03-01T07:34:02;102477.44;;;0.19;76.95
70833;BME280;58452;59.418;17.962;2023-03-01T07:36:27;102483.19;;;0.28;76.35
70833;BME280;58452;59.418;17.962;2023-03-01T07:38:53;102477.25;;;0.28;76.37
70833;BME280;58452;59.418;17.962;2023-03-01T07:41:20;102477.13;;;0.34;76.70
70833;BME280;58452;59.418;17.962;2023-03-01T07:43:46;102479.41;;;0.44;76.29
70833;BME280;58452;59.418;17.962;2023-03-01T07:46:11;102469.06;;;0.52;76.35
70833;BME280;58452;59.418;17.962;2023-03-01T07:48:37;102474.91;;;0.57;75.88
70833;BME280;58452;59.418;17.962;2023-03-01T07:51:04;102478.09;;;0.65;75.70
70833;BME280;58452;59.418;17.962;2023-03-01T07:53:31;102474.63;;;0.69;75.71
70833;BME280;58452;59.418;17.962;2023-03-01T07:56:04;102466.88;;;0.74;74.63
70833;BME280;58452;59.418;17.962;2023-03-01T07:58:30;102475.91;;;0.85;74.59
70833;BME280;58452;59.418;17.962;2023-03-01T08:00:56;102477.44;;;0.92;74.55
70833;BME280;58452;59.418;17.962;2023-03-01T08:03:21;102465.28;;;1.04;73.79
70833;BME280;58452;59.418;17.962;2023-03-01T08:05:46;102455.22;;;1.01;73.70
70833;BME280;58452;59.418;17.962;2023-03-01T08:08:12;102449.94;;;1.07;73.36
70833;BME280;58452;59.418;17.962;2023-03-01T08:10:37;102453.19;;;1.13;72.92
70833;BME280;58452;59.418;17.962;2023-03-01T08:13:03;102451.31;;;1.20;73.58
70833;BME280;58452;59.418;17.962;2023-03-01T08:15:28;102460.50;;;1.25;73.36
70833;BME280;58452;59.418;17.962;2023-03-01T08:17:53;102455.22;;;1.33;73.06
70833;BME280;58452;59.418;17.962;2023-03-01T08:20:19;102461.75;;;1.43;72.61
70833;BME280;58452;59.418;17.962;2023-03-01T08:22:45;102462.34;;;1.51;71.84
70833;BME280;58452;59.418;17.962;2023-03-01T08:25:10;102461.28;;;1.60;72.25
70833;BME280;58452;59.418;17.962;2023-03-01T08:27:36;102460.09;;;1.71;71.95
70833;BME280;58452;59.418;17.962;2023-03-01T08:30:01;102464.91;;;1.80;71.64
70833;BME280;58452;59.418;17.962;2023-03-01T08:32:27;102463.00;;;1.88;71.01
70833;BME280;58452;59.418;17.962;2023-03-01T08:34:52;102467.91;;;1.94;70.92
70833;BME280;58452;59.418;17.962;2023-03-01T08:37:17;102464.34;;;2.02;70.06
70833;BME280;58452;59.418;17.962;2023-03-01T08:39:43;102453.84;;;2.11;70.19
70833;BME280;58452;59.418;17.962;2023-03-01T08:42:08;102462.00;;;2.22;70.05
70833;BME280;58452;59.418;17.962;2023-03-01T08:44:34;102458.31;;;2.32;69.91
70833;BME280;58452;59.418;17.962;2023-03-01T08:47:00;102454.63;;;2.42;69.11
70833;BME280;58452;59.418;17.962;2023-03-01T08:49:27;102454.50;;;2.45;68.84
70833;BME280;58452;59.418;17.962;2023-03-01T08:51:53;102453.34;;;2.55;68.68
70833;BME280;58452;59.418;17.962;2023-03-01T08:54:20;102452.38;;;2.59;68.11
70833;BME280;58452;59.418;17.962;2023-03-01T08:56:47;102441.97;;;2.65;67.89
70833;BME280;58452;59.418;17.962;2023-03-01T08:59:13;102440.00;;;2.73;67.98
70833;BME280;58452;59.418;17.962;2023-03-01T09:01:40;102443.28;;;2.77;67.43
70833;BME280;58452;59.418;17.962;2023-03-01T09:04:05;102430.31;;;2.83;66.96
70833;BME280;58452;59.418;17.962;2023-03-01T09:06:32;102430.06;;;2.90;66.83
70833;BME280;58452;59.418;17.962;2023-03-01T09:08:58;102431.59;;;2.96;66.79
70833;BME280;58452;59.418;17.962;2023-03-01T09:11:24;102430.44;;;3.05;66.40
70833;BME280;58452;59.418;17.962;2023-03-01T09:13:50;102420.88;;;3.11;66.58
70833;BME280;58452;59.418;17.962;2023-03-01T09:16:17;102419.00;;;3.16;67.07
70833;BME280;58452;59.418;17.962;2023-03-01T09:18:45;102421.28;;;3.24;67.22
70833;BME280;58452;59.418;17.962;2023-03-01T09:21:13;102410.78;;;3.33;66.51
70833;BME280;58452;59.418;17.962;2023-03-01T09:23:41;102411.59;;;3.33;65.59
70833;BME280;58452;59.418;17.962;2023-03-01T09:26:12;102410.53;;;3.39;66.07
70833;BME280;58452;59.418;17.962;2023-03-01T09:28:38;102415.22;;;3.51;66.37
70833;BME280;58452;59.418;17.962;2023-03-01T09:31:04;102408.75;;;3.64;65.78
70833;BME280;58452;59.418;17.962;2023-03-01T09:33:31;102409.44;;;3.69;65.38
70833;BME280;58452;59.418;17.962;2023-03-01T09:36:05;102405.16;;;3.70;64.63
70833;BME280;58452;59.418;17.962;2023-03-01T09:38:32;102403.97;;;3.78;64.69
70833;BME280;58452;59.418;17.962;2023-03-01T09:41:00;102396.97;;;3.83;64.60
70833;BME280;58452;59.418;17.962;2023-03-01T09:43:44;102396.53;;;3.96;63.87
70833;BME280;58452;59.418;17.962;2023-03-01T09:46:13;102391.53;;;3.92;63.85
70833;BME280;58452;59.418;17.962;2023-03-01T09:49:03;102388.91;;;3.94;63.43
70833;BME280;58452;59.418;17.962;2023-03-01T09:51:32;102386.06;;;4.02;64.50
70833;BME280;58452;59.418;17.962;2023-03-01T09:53:58;102375.13;;;3.98;64.09
70833;BME280;58452;59.418;17.962;2023-03-01T09:56:36;102385.81;;;4.08;64.03
70833;BME280;58452;59.418;17.962;2023-03-01T10:02:45;102382.09;;;3.94;63.85
70833;BME280;58452;59.418;17.962;2023-03-01T10:10:51;102384.09;;;4.08;63.50
70833;BME280;58452;59.418;17.962;2023-03-01T10:13:23;102377.81;;;4.17;63.99
70833;BME280;58452;59.418;17.962;2023-03-01T10:15:56;102371.91;;;4.15;63.32
70833;BME280;58452;59.418;17.962;2023-03-01T10:18:27;102366.94;;;4.12;64.31
70833;BME280;58452;59.418;17.962;2023-03-01T10:21:03;102368.25;;;4.22;63.71
70833;BME280;58452;59.418;17.962;2023-03-01T10:23:34;102366.44;;;4.24;62.92
70833;BME280;58452;59.418;17.962;2023-03-01T10:26:36;102362.81;;;4.29;63.02
70833;BME280;58452;59.418;17.962;2023-03-01T10:29:10;102354.34;;;4.29;62.61
70833;BME280;58452;59.418;17.962;2023-03-01T10:34:18;102355.84;;;4.33;62.68
70833;BME280;58452;59.418;17.962;2023-03-01T10:36:48;102345.53;;;4.36;62.79
70833;BME280;58452;59.418;17.962;2023-03-01T10:39:19;102356.69;;;4.33;62.48
70833;BME280;58452;59.418;17.962;2023-03-01T10:41:58;102355.22;;;4.48;62.69
70833;BME280;58452;59.418;17.962;2023-03-01T10:44:45;102354.59;;;4.43;62.69
70833;BME280;58452;59.418;17.962;2023-03-01T10:47:27;102346.63;;;4.51;62.78
70833;BME280;58452;59.418;17.962;2023-03-01T10:50:08;102337.84;;;4.56;61.65
70833;BME280;58452;59.418;17.962;2023-03-01T10:52:56;102343.16;;;4.72;61.67
70833;BME280;58452;59.418;17.962;2023-03-01T10:55:42;102343.16;;;4.72;61.98
70833;BME280;58452;59.418;17.962;2023-03-01T11:03:14;102345.00;;;4.88;61.37
70833;BME280;58452;59.418;17.962;2023-03-01T11:06:01;102346.38;;;4.96;60.57
70833;BME280;58452;59.418;17.962;2023-03-01T11:08:43;102340.28;;;4.79;60.68
70833;BME280;58452;59.418;17.962;2023-03-01T11:11:31;102344.34;;;5.04;60.66
70833;BME280;58452;59.418;17.962;2023-03-01T11:14:16;102346.41;;;5.14;60.34
70833;BME280;58452;59.418;17.962;2023-03-01T11:16:45;102338.16;;;5.28;59.95
70833;BME280;58452;59.418;17.962;2023-03-01T11:21:44;102340.09;;;5.41;59.93
70833;BME280;58452;59.418;17.962;2023-03-01T11:24:14;102343.75;;;5.36;59.59
70833;BME280;58452;59.418;17.962;2023-03-01T11:26:42;102335.16;;;5.37;59.57
70833;BME280;58452;59.418;17.962;2023-03-01T11:29:37;102344.72;;;5.52;59.04
70833;BME280;58452;59.418;17.962;2023-03-01T11:32:07;102336.06;;;5.55;59.19
70833;BME280;58452;59.418;17.962;2023-03-01T11:34:43;102332.25;;;5.63;58.57
70833;BME280;58452;59.418;17.962;2023-03-01T11:37:33;102327.47;;;5.74;58.18
70833;BME280;58452;59.418;17.962;2023-03-01T11:40:17;102330.34;;;5.85;58.28
70833;BME280;58452;59.418;17.962;2023-03-01T11:42:52;102323.19;;;5.94;57.72
70833;BME280;58452;59.418;17.962;2023-03-01T11:45:22;102327.47;;;5.93;56.95
70833;BME280;58452;59.418;17.962;2023-03-01T11:53:48;102305.13;;;6.31;57.19
70833;BME280;58452;59.418;17.962;2023-03-01T11:56:25;102293.50;;;6.41;56.64
70833;BME280;58452;59.418;17.962;2023-03-01T12:01:55;102291.78;;;6.74;56.12
70833;BME280;58452;59.418;17.962;2023-03-01T12:06:56;102297.66;;;7.25;54.68
70833;BME280;58452;59.418;17.962;2023-03-01T12:09:38;102284.91;;;7.39;53.85
70833;BME280;58452;59.418;17.962;2023-03-01T12:12:09;102281.00;;;7.48;53.70
70833;BME280;58452;59.418;17.962;2023-03-01T12:28:50;102253.69;;;8.36;51.88
70833;BME280;58452;59.418;17.962;2023-03-01T12:47:45;102240.19;;;8.75;50.84
70833;BME280;58452;59.418;17.962;2023-03-01T12:50:19;102230.47;;;9.07;50.69
70833;BME280;58452;59.418;17.962;2023-03-01T12:52:57;102237.72;;;9.14;48.95
70833;BME280;58452;59.418;17.962;2023-03-01T12:55:36;102236.97;;;8.86;48.87
70833;BME280;58452;59.418;17.962;2023-03-01T13:00:47;102223.84;;;9.17;48.28
70833;BME280;58452;59.418;17.962;2023-03-01T13:03:26;102223.16;;;9.01;48.96
70833;BME280;58452;59.418;17.962;2023-03-01T13:08:47;102215.53;;;9.53;47.88
70833;BME280;58452;59.418;17.962;2023-03-01T13:11:18;102220.53;;;9.15;48.17
70833;BME280;58452;59.418;17.962;2023-03-01T13:13:44;102218.16;;;9.12;48.61
70833;BME280;58452;59.418;17.962;2023-03-01T13:19:22;102213.97;;;8.97;48.90
70833;BME280;58452;59.418;17.962;2023-03-01T13:21:49;102213.97;;;8.97;48.77
70833;BME280;58452;59.418;17.962;2023-03-01T13:24:40;102207.47;;;9.18;48.66
70833;BME280;58452;59.418;17.962;2023-03-01T13:32:33;102204.56;;;9.10;48.23
70833;BME280;58452;59.418;17.962;2023-03-01T13:37:45;102205.81;;;9.17;48.49
70833;BME280;58452;59.418;17.962;2023-03-01T13:42:56;102200.22;;;9.10;48.38
70833;BME280;58452;59.418;17.962;2023-03-01T13:48:02;102198.63;;;9.22;48.15
70833;BME280;58452;59.418;17.962;2023-03-01T13:50:35;102189.38;;;9.32;48.66
70833;BME280;58452;59.418;17.962;2023-03-01T13:53:04;102186.13;;;9.16;48.67
70833;BME280;58452;59.418;17.962;2023-03-01T13:58:02;102185.28;;;8.89;48.49
70833;BME280;58452;59.418;17.962;2023-03-01T14:00:33;102178.16;;;8.65;49.15
70833;BME280;58452;59.418;17.962;2023-03-01T14:03:17;102173.19;;;8.62;49.88
70833;BME280;58452;59.418;17.962;2023-03-01T14:05:58;102168.41;;;8.56;50.07
70833;BME280;58452;59.418;17.962;2023-03-01T14:08:25;102172.81;;;8.68;50.64
70833;BME280;58452;59.418;17.962;2023-03-01T14:18:53;102170.09;;;8.29;49.32
70833;BME280;58452;59.418;17.962;2023-03-01T14:21:20;102170.47;;;8.07;49.09
70833;BME280;58452;59.418;17.962;2023-03-01T14:23:47;102174.53;;;7.97;49.92
70833;BME280;58452;59.418;17.962;2023-03-01T14:26:21;102159.66;;;7.88;49.66
70833;BME280;58452;59.418;17.962;2023-03-01T14:28:47;102161.38;;;7.73;49.76
70833;BME280;58452;59.418;17.962;2023-03-01T14:31:35;102165.34;;;7.63;50.65
70833;BME280;58452;59.418;17.962;2023-03-01T14:34:00;102165.63;;;7.59;50.22
70833;BME280;58452;59.418;17.962;2023-03-01T14:36:28;102153.25;;;7.65;50.47
70833;BME280;58452;59.418;17.962;2023-03-01T14:38:54;102164.44;;;7.64;50.43
70833;BME280;58452;59.418;17.962;2023-03-01T14:41:25;102161.31;;;7.59;50.73
70833;BME280;58452;59.418;17.962;2023-03-01T14:43:57;102167.56;;;7.55;50.78